sensor_id;sensor_type;location;lat;lon;timestamp;temperature;humidity
4651;DHT22;2338;49.602;8.722;2022-08-23T00:00:44;19.50;55.00
4651;DHT22;2338;49.602;8.722;2022-08-23T00:03:30;19.40;55.50
4651;DHT22;2338;49.602;8.722;2022-08-23T00:06:17;19.30;57.10
4651;DHT22;2338;49.602;8.722;2022-08-23T00:09:03;19.30;56.20
4651;DHT22;2338;49.602;8.722;2022-08-23T00:11:52;19.40;55.90
4651;DHT22;2338;49.602;8.722;2022-08-23T00:14:42;19.30;57.20
4651;DHT22;2338;49.602;8.722;2022-08-23T00:17:29;19.30;56.80
4651;DHT22;2338;49.602;8.722;2022-08-23T00:20:16;19.30;57.10
4651;DHT22;2338;49.602;8.722;2022-08-23T00:23:03;19.20;56.60
4651;DHT22;2338;49.602;8.722;2022-08-23T00:25:49;19.10;58.10
4651;DHT22;2338;49.602;8.722;2022-08-23T00:28:34;19.00;58.10
4651;DHT22;2338;49.602;8.722;2022-08-23T00:31:21;18.90;59.70
4651;DHT22;2338;49.602;8.722;2022-08-23T00:34:07;18.80;58.90
4651;DHT22;2338;49.602;8.722;2022-08-23T00:36:53;18.80;60.20
4651;DHT22;2338;49.602;8.722;2022-08-23T00:39:40;18.80;60.60
4651;DHT22;2338;49.602;8.722;2022-08-23T00:42:30;18.70;61.00
4651;DHT22;2338;49.602;8.722;2022-08-23T00:45:45;18.50;62.00
4651;DHT22;2338;49.602;8.722;2022-08-23T00:48:52;18.60;62.60
4651;DHT22;2338;49.602;8.722;2022-08-23T00:51:44;18.60;62.30
4651;DHT22;2338;49.602;8.722;2022-08-23T00:54:32;18.50;62.70
4651;DHT22;2338;49.602;8.722;2022-08-23T00:57:19;18.60;62.60
4651;DHT22;2338;49.602;8.722;2022-08-23T01:00:08;18.60;62.80
4651;DHT22;2338;49.602;8.722;2022-08-23T01:02:54;18.50;63.70
4651;DHT22;2338;49.602;8.722;2022-08-23T01:05:46;18.40;63.90
4651;DHT22;2338;49.602;8.722;2022-08-23T01:08:34;18.40;63.60
4651;DHT22;2338;49.602;8.722;2022-08-23T01:11:25;18.40;63.60
4651;DHT22;2338;49.602;8.722;2022-08-23T01:14:18;18.40;64.00
4651;DHT22;2338;49.602;8.722;2022-08-23T01:17:07;18.30;64.30
4651;DHT22;2338;49.602;8.722;2022-08-23T01:19:57;18.30;64.80
4651;DHT22;2338;49.602;8.722;2022-08-23T01:22:49;18.20;65.70
4651;DHT22;2338;49.602;8.722;2022-08-23T01:25:38;18.20;66.00
4651;DHT22;2338;49.602;8.722;2022-08-23T01:28:24;18.10;66.00
4651;DHT22;2338;49.602;8.722;2022-08-23T01:31:12;18.00;66.90
4651;DHT22;2338;49.602;8.722;2022-08-23T01:34:02;18.10;66.50
4651;DHT22;2338;49.602;8.722;2022-08-23T01:36:48;18.20;67.00
4651;DHT22;2338;49.602;8.722;2022-08-23T01:39:34;18.10;66.70
4651;DHT22;2338;49.602;8.722;2022-08-23T01:42:21;18.00;67.60
4651;DHT22;2338;49.602;8.722;2022-08-23T01:45:09;18.00;67.80
4651;DHT22;2338;49.602;8.722;2022-08-23T01:47:55;17.90;68.10
4651;DHT22;2338;49.602;8.722;2022-08-23T01:50:41;17.90;68.20
4651;DHT22;2338;49.602;8.722;2022-08-23T01:53:26;17.90;68.30
4651;DHT22;2338;49.602;8.722;2022-08-23T01:56:13;17.80;69.80
4651;DHT22;2338;49.602;8.722;2022-08-23T01:59:00;17.80;70.30
4651;DHT22;2338;49.602;8.722;2022-08-23T02:01:46;17.80;69.80
4651;DHT22;2338;49.602;8.722;2022-08-23T02:04:32;17.80;70.00
4651;DHT22;2338;49.602;8.722;2022-08-23T02:07:17;17.80;70.20
4651;DHT22;2338;49.602;8.722;2022-08-23T02:10:05;17.90;70.00
4651;DHT22;2338;49.602;8.722;2022-08-23T02:12:51;17.90;69.90
4651;DHT22;2338;49.602;8.722;2022-08-23T02:15:41;17.80;69.70
4651;DHT22;2338;49.602;8.722;2022-08-23T02:18:28;17.90;69.30
4651;DHT22;2338;49.602;8.722;2022-08-23T02:21:14;17.80;69.80
4651;DHT22;2338;49.602;8.722;2022-08-23T02:24:04;17.80;70.20
4651;DHT22;2338;49.602;8.722;2022-08-23T02:26:55;17.80;70.70
4651;DHT22;2338;49.602;8.722;2022-08-23T02:29:42;17.80;71.00
4651;DHT22;2338;49.602;8.722;2022-08-23T02:32:30;17.70;71.00
4651;DHT22;2338;49.602;8.722;2022-08-23T02:35:15;17.70;70.90
4651;DHT22;2338;49.602;8.722;2022-08-23T02:38:03;17.60;71.60
4651;DHT22;2338;49.602;8.722;2022-08-23T02:40:48;17.60;72.10
4651;DHT22;2338;49.602;8.722;2022-08-23T02:43:34;17.70;72.00
4651;DHT22;2338;49.602;8.722;2022-08-23T02:46:21;17.60;72.60
4651;DHT22;2338;49.602;8.722;2022-08-23T02:49:09;17.60;73.10
4651;DHT22;2338;49.602;8.722;2022-08-23T02:51:54;17.60;73.20
4651;DHT22;2338;49.602;8.722;2022-08-23T02:54:40;17.70;72.70
4651;DHT22;2338;49.602;8.722;2022-08-23T02:57:27;17.70;72.80
4651;DHT22;2338;49.602;8.722;2022-08-23T03:00:16;17.80;72.80
4651;DHT22;2338;49.602;8.722;2022-08-23T03:03:01;17.70;72.80
4651;DHT22;2338;49.602;8.722;2022-08-23T03:05:49;17.60;72.60
4651;DHT22;2338;49.602;8.722;2022-08-23T03:08:35;17.70;72.80
4651;DHT22;2338;49.602;8.722;2022-08-23T03:11:21;17.80;72.80
4651;DHT22;2338;49.602;8.722;2022-08-23T03:14:08;17.70;71.80
4651;DHT22;2338;49.602;8.722;2022-08-23T03:16:54;17.70;72.70
4651;DHT22;2338;49.602;8.722;2022-08-23T03:19:40;17.60;72.60
4651;DHT22;2338;49.602;8.722;2022-08-23T03:22:27;17.60;72.70
4651;DHT22;2338;49.602;8.722;2022-08-23T03:25:12;17.50;73.20
4651;DHT22;2338;49.602;8.722;2022-08-23T03:28:01;17.40;72.90
4651;DHT22;2338;49.602;8.722;2022-08-23T03:30:47;17.40;73.60
4651;DHT22;2338;49.602;8.722;2022-08-23T03:33:33;17.30;74.10
4651;DHT22;2338;49.602;8.722;2022-08-23T03:36:19;17.20;74.50
4651;DHT22;2338;49.602;8.722;2022-08-23T03:39:06;17.20;74.90
4651;DHT22;2338;49.602;8.722;2022-08-23T03:41:51;17.20;73.90
4651;DHT22;2338;49.602;8.722;2022-08-23T03:44:37;17.10;74.20
4651;DHT22;2338;49.602;8.722;2022-08-23T03:47:23;17.20;74.50
4651;DHT22;2338;49.602;8.722;2022-08-23T03:50:09;17.20;74.50
4651;DHT22;2338;49.602;8.722;2022-08-23T03:52:54;17.10;74.50
4651;DHT22;2338;49.602;8.722;2022-08-23T03:55:42;17.10;75.10
4651;DHT22;2338;49.602;8.722;2022-08-23T03:58:28;17.10;74.80
4651;DHT22;2338;49.602;8.722;2022-08-23T04:01:13;16.90;75.20
4651;DHT22;2338;49.602;8.722;2022-08-23T04:03:59;16.80;75.70
4651;DHT22;2338;49.602;8.722;2022-08-23T04:06:45;16.80;76.30
4651;DHT22;2338;49.602;8.722;2022-08-23T04:09:30;16.70;76.70
4651;DHT22;2338;49.602;8.722;2022-08-23T04:12:17;16.60;77.50
4651;DHT22;2338;49.602;8.722;2022-08-23T04:15:04;16.50;78.10
4651;DHT22;2338;49.602;8.722;2022-08-23T04:17:50;16.40;79.20
4651;DHT22;2338;49.602;8.722;2022-08-23T04:20:35;16.50;79.80
4651;DHT22;2338;49.602;8.722;2022-08-23T04:23:21;16.40;80.50
4651;DHT22;2338;49.602;8.722;2022-08-23T04:26:08;16.40;80.70
4651;DHT22;2338;49.602;8.722;2022-08-23T04:28:55;16.40;81.00
4651;DHT22;2338;49.602;8.722;2022-08-23T04:31:41;16.40;81.00
4651;DHT22;2338;49.602;8.722;2022-08-23T04:34:27;16.60;80.20
4651;DHT22;2338;49.602;8.722;2022-08-23T04:37:12;16.70;79.60
4651;DHT22;2338;49.602;8.722;2022-08-23T04:39:58;16.80;79.00
4651;DHT22;2338;49.602;8.722;2022-08-23T04:43:02;16.70;79.50
4651;DHT22;2338;49.602;8.722;2022-08-23T04:45:49;16.80;79.20
4651;DHT22;2338;49.602;8.722;2022-08-23T04:48:35;16.80;79.40
4651;DHT22;2338;49.602;8.722;2022-08-23T04:51:21;16.70;79.60
4651;DHT22;2338;49.602;8.722;2022-08-23T04:54:06;16.60;79.90
4651;DHT22;2338;49.602;8.722;2022-08-23T04:56:52;16.50;81.00
4651;DHT22;2338;49.602;8.722;2022-08-23T04:59:37;16.50;81.00
4651;DHT22;2338;49.602;8.722;2022-08-23T05:02:24;16.50;81.70
4651;DHT22;2338;49.602;8.722;2022-08-23T05:05:10;16.60;81.10
4651;DHT22;2338;49.602;8.722;2022-08-23T05:07:56;16.70;81.40
4651;DHT22;2338;49.602;8.722;2022-08-23T05:10:43;16.80;82.00
4651;DHT22;2338;49.602;8.722;2022-08-23T05:13:29;16.80;82.10
4651;DHT22;2338;49.602;8.722;2022-08-23T05:16:15;16.80;81.30
4651;DHT22;2338;49.602;8.722;2022-08-23T05:19:02;16.80;81.70
4651;DHT22;2338;49.602;8.722;2022-08-23T05:21:48;16.90;81.40
4651;DHT22;2338;49.602;8.722;2022-08-23T05:24:34;17.00;81.50
4651;DHT22;2338;49.602;8.722;2022-08-23T05:27:19;17.00;81.50
4651;DHT22;2338;49.602;8.722;2022-08-23T05:30:06;17.00;81.50
4651;DHT22;2338;49.602;8.722;2022-08-23T05:32:52;17.20;81.30
4651;DHT22;2338;49.602;8.722;2022-08-23T05:35:39;17.40;81.00
4651;DHT22;2338;49.602;8.722;2022-08-23T05:38:25;17.40;80.60
4651;DHT22;2338;49.602;8.722;2022-08-23T05:41:11;17.50;80.20
4651;DHT22;2338;49.602;8.722;2022-08-23T05:43:56;17.70;78.50
4651;DHT22;2338;49.602;8.722;2022-08-23T05:46:42;17.70;78.90
4651;DHT22;2338;49.602;8.722;2022-08-23T05:49:29;17.70;79.70
4651;DHT22;2338;49.602;8.722;2022-08-23T05:52:16;17.80;80.00
4651;DHT22;2338;49.602;8.722;2022-08-23T05:55:01;18.00;79.40
4651;DHT22;2338;49.602;8.722;2022-08-23T05:57:47;18.10;79.40
4651;DHT22;2338;49.602;8.722;2022-08-23T06:00:33;18.30;78.60
4651;DHT22;2338;49.602;8.722;2022-08-23T06:03:19;18.40;78.60
4651;DHT22;2338;49.602;8.722;2022-08-23T06:06:05;18.50;78.70
4651;DHT22;2338;49.602;8.722;2022-08-23T06:08:52;18.60;78.70
4651;DHT22;2338;49.602;8.722;2022-08-23T06:11:38;18.70;78.60
4651;DHT22;2338;49.602;8.722;2022-08-23T06:14:24;18.80;78.90
4651;DHT22;2338;49.602;8.722;2022-08-23T06:17:09;18.80;79.20
4651;DHT22;2338;49.602;8.722;2022-08-23T06:19:55;19.00;79.40
4651;DHT22;2338;49.602;8.722;2022-08-23T06:22:40;19.00;79.30
4651;DHT22;2338;49.602;8.722;2022-08-23T06:25:27;19.10;78.60
4651;DHT22;2338;49.602;8.722;2022-08-23T06:28:13;19.20;79.00
4651;DHT22;2338;49.602;8.722;2022-08-23T06:30:58;19.20;78.70
4651;DHT22;2338;49.602;8.722;2022-08-23T06:33:44;19.30;78.30
4651;DHT22;2338;49.602;8.722;2022-08-23T06:36:29;19.50;78.30
4651;DHT22;2338;49.602;8.722;2022-08-23T06:39:16;19.60;78.50
4651;DHT22;2338;49.602;8.722;2022-08-23T06:42:06;19.70;79.10
4651;DHT22;2338;49.602;8.722;2022-08-23T06:44:51;19.80;78.90
4651;DHT22;2338;49.602;8.722;2022-08-23T06:47:37;19.90;78.60
4651;DHT22;2338;49.602;8.722;2022-08-23T06:50:23;20.00;77.40
4651;DHT22;2338;49.602;8.722;2022-08-23T06:53:08;20.10;77.10
4651;DHT22;2338;49.602;8.722;2022-08-23T06:55:54;20.30;76.20
4651;DHT22;2338;49.602;8.722;2022-08-23T06:58:41;20.50;75.00
4651;DHT22;2338;49.602;8.722;2022-08-23T07:01:30;20.60;75.10
4651;DHT22;2338;49.602;8.722;2022-08-23T07:04:19;20.60;76.50
4651;DHT22;2338;49.602;8.722;2022-08-23T07:07:06;20.70;76.00
4651;DHT22;2338;49.602;8.722;2022-08-23T07:09:52;20.90;75.30
4651;DHT22;2338;49.602;8.722;2022-08-23T07:12:38;21.00;73.60
4651;DHT22;2338;49.602;8.722;2022-08-23T07:15:26;21.30;70.50
4651;DHT22;2338;49.602;8.722;2022-08-23T07:18:12;21.40;67.30
4651;DHT22;2338;49.602;8.722;2022-08-23T07:20:59;21.60;66.40
4651;DHT22;2338;49.602;8.722;2022-08-23T07:23:46;21.80;65.10
4651;DHT22;2338;49.602;8.722;2022-08-23T07:26:31;21.90;61.50
4651;DHT22;2338;49.602;8.722;2022-08-23T07:29:18;22.00;57.90
4651;DHT22;2338;49.602;8.722;2022-08-23T07:32:05;22.20;60.40
4651;DHT22;2338;49.602;8.722;2022-08-23T07:34:51;22.30;58.20
4651;DHT22;2338;49.602;8.722;2022-08-23T07:37:37;22.40;55.90
4651;DHT22;2338;49.602;8.722;2022-08-23T07:40:23;22.50;56.00
4651;DHT22;2338;49.602;8.722;2022-08-23T07:43:08;22.60;55.10
4651;DHT22;2338;49.602;8.722;2022-08-23T07:45:54;22.70;56.20
4651;DHT22;2338;49.602;8.722;2022-08-23T07:48:41;22.80;49.00
4651;DHT22;2338;49.602;8.722;2022-08-23T07:51:29;22.90;46.90
4651;DHT22;2338;49.602;8.722;2022-08-23T07:54:15;23.00;43.60
4651;DHT22;2338;49.602;8.722;2022-08-23T07:57:03;23.10;43.90
4651;DHT22;2338;49.602;8.722;2022-08-23T07:59:48;23.20;44.80
4651;DHT22;2338;49.602;8.722;2022-08-23T08:02:34;23.30;42.60
4651;DHT22;2338;49.602;8.722;2022-08-23T08:05:21;23.40;40.40
4651;DHT22;2338;49.602;8.722;2022-08-23T08:08:08;23.50;42.40
4651;DHT22;2338;49.602;8.722;2022-08-23T08:10:53;23.60;38.90
4651;DHT22;2338;49.602;8.722;2022-08-23T08:13:41;23.70;39.40
4651;DHT22;2338;49.602;8.722;2022-08-23T08:16:29;23.80;38.20
4651;DHT22;2338;49.602;8.722;2022-08-23T08:19:17;23.80;39.90
4651;DHT22;2338;49.602;8.722;2022-08-23T08:22:04;23.90;39.60
4651;DHT22;2338;49.602;8.722;2022-08-23T08:24:50;23.80;39.50
4651;DHT22;2338;49.602;8.722;2022-08-23T08:27:35;23.80;38.60
4651;DHT22;2338;49.602;8.722;2022-08-23T08:30:21;23.80;41.70
4651;DHT22;2338;49.602;8.722;2022-08-23T08:33:06;23.80;39.80
4651;DHT22;2338;49.602;8.722;2022-08-23T08:35:52;23.80;40.90
4651;DHT22;2338;49.602;8.722;2022-08-23T08:38:39;23.80;43.90
4651;DHT22;2338;49.602;8.722;2022-08-23T08:41:33;23.80;40.30
4651;DHT22;2338;49.602;8.722;2022-08-23T08:44:31;23.90;41.90
4651;DHT22;2338;49.602;8.722;2022-08-23T08:47:21;23.90;43.70
4651;DHT22;2338;49.602;8.722;2022-08-23T08:50:16;24.00;41.80
4651;DHT22;2338;49.602;8.722;2022-08-23T08:53:07;24.00;40.60
4651;DHT22;2338;49.602;8.722;2022-08-23T08:55:58;24.00;41.30
4651;DHT22;2338;49.602;8.722;2022-08-23T08:58:48;24.00;41.90
4651;DHT22;2338;49.602;8.722;2022-08-23T09:01:36;24.10;40.60
4651;DHT22;2338;49.602;8.722;2022-08-23T09:04:22;24.30;41.30
4651;DHT22;2338;49.602;8.722;2022-08-23T09:07:13;24.40;42.60
4651;DHT22;2338;49.602;8.722;2022-08-23T09:10:18;24.60;41.80
4651;DHT22;2338;49.602;8.722;2022-08-23T09:13:21;24.80;41.60
4651;DHT22;2338;49.602;8.722;2022-08-23T09:16:26;25.00;41.00
4651;DHT22;2338;49.602;8.722;2022-08-23T09:19:14;25.20;38.80
4651;DHT22;2338;49.602;8.722;2022-08-23T09:22:03;25.30;35.80
4651;DHT22;2338;49.602;8.722;2022-08-23T09:24:50;25.40;33.30
4651;DHT22;2338;49.602;8.722;2022-08-23T09:27:36;25.50;34.10
4651;DHT22;2338;49.602;8.722;2022-08-23T09:30:44;25.60;35.00
4651;DHT22;2338;49.602;8.722;2022-08-23T09:33:37;25.70;33.90
4651;DHT22;2338;49.602;8.722;2022-08-23T09:36:26;25.80;34.60
4651;DHT22;2338;49.602;8.722;2022-08-23T09:39:25;25.90;34.20
4651;DHT22;2338;49.602;8.722;2022-08-23T09:42:26;26.10;33.10
4651;DHT22;2338;49.602;8.722;2022-08-23T09:45:28;26.30;31.60
4651;DHT22;2338;49.602;8.722;2022-08-23T09:48:31;26.40;31.70
4651;DHT22;2338;49.602;8.722;2022-08-23T09:51:22;26.50;31.10
4651;DHT22;2338;49.602;8.722;2022-08-23T09:54:12;26.60;31.80
4651;DHT22;2338;49.602;8.722;2022-08-23T09:57:05;26.70;29.90
4651;DHT22;2338;49.602;8.722;2022-08-23T09:59:53;26.80;29.30
4651;DHT22;2338;49.602;8.722;2022-08-23T10:02:42;26.80;29.30
4651;DHT22;2338;49.602;8.722;2022-08-23T10:05:35;26.90;29.80
4651;DHT22;2338;49.602;8.722;2022-08-23T10:08:23;27.00;28.30
4651;DHT22;2338;49.602;8.722;2022-08-23T10:11:16;27.10;28.30
4651;DHT22;2338;49.602;8.722;2022-08-23T10:14:03;27.20;28.60
4651;DHT22;2338;49.602;8.722;2022-08-23T10:16:57;27.30;27.80
4651;DHT22;2338;49.602;8.722;2022-08-23T10:19:50;27.50;28.60
4651;DHT22;2338;49.602;8.722;2022-08-23T10:22:43;27.60;28.40
4651;DHT22;2338;49.602;8.722;2022-08-23T10:25:34;27.70;27.40
4651;DHT22;2338;49.602;8.722;2022-08-23T10:28:31;27.80;25.20
4651;DHT22;2338;49.602;8.722;2022-08-23T10:31:44;27.80;25.00
4651;DHT22;2338;49.602;8.722;2022-08-23T10:34:41;28.00;24.70
4651;DHT22;2338;49.602;8.722;2022-08-23T10:37:41;28.00;25.20
4651;DHT22;2338;49.602;8.722;2022-08-23T10:40:37;28.10;24.40
4651;DHT22;2338;49.602;8.722;2022-08-23T10:43:31;28.20;24.90
4651;DHT22;2338;49.602;8.722;2022-08-23T10:46:21;28.30;23.40
4651;DHT22;2338;49.602;8.722;2022-08-23T10:49:10;28.40;23.40
4651;DHT22;2338;49.602;8.722;2022-08-23T10:51:57;28.40;24.10
4651;DHT22;2338;49.602;8.722;2022-08-23T10:54:48;28.50;24.80
4651;DHT22;2338;49.602;8.722;2022-08-23T10:57:45;28.60;23.80
4651;DHT22;2338;49.602;8.722;2022-08-23T11:00:33;28.80;24.20
4651;DHT22;2338;49.602;8.722;2022-08-23T11:03:24;28.80;23.60
4651;DHT22;2338;49.602;8.722;2022-08-23T11:09:48;29.00;23.10
4651;DHT22;2338;49.602;8.722;2022-08-23T11:12:48;29.10;21.90
4651;DHT22;2338;49.602;8.722;2022-08-23T11:15:41;29.20;21.70
4651;DHT22;2338;49.602;8.722;2022-08-23T11:18:45;29.20;21.60
4651;DHT22;2338;49.602;8.722;2022-08-23T11:21:44;29.30;22.10
4651;DHT22;2338;49.602;8.722;2022-08-23T11:27:37;29.30;21.70
4651;DHT22;2338;49.602;8.722;2022-08-23T11:30:44;29.20;21.60
4651;DHT22;2338;49.602;8.722;2022-08-23T11:33:34;29.20;21.60
4651;DHT22;2338;49.602;8.722;2022-08-23T11:36:22;29.20;21.70
4651;DHT22;2338;49.602;8.722;2022-08-23T11:39:11;29.30;21.70
4651;DHT22;2338;49.602;8.722;2022-08-23T11:42:05;29.50;21.80
4651;DHT22;2338;49.602;8.722;2022-08-23T11:44:53;29.60;21.90
4651;DHT22;2338;49.602;8.722;2022-08-23T11:47:41;29.70;22.00
4651;DHT22;2338;49.602;8.722;2022-08-23T11:50:34;29.90;21.10
4651;DHT22;2338;49.602;8.722;2022-08-23T11:53:35;30.00;20.00
4651;DHT22;2338;49.602;8.722;2022-08-23T11:56:36;30.00;20.90
4651;DHT22;2338;49.602;8.722;2022-08-23T11:59:37;30.00;19.90
4651;DHT22;2338;49.602;8.722;2022-08-23T12:02:49;30.00;20.60
4651;DHT22;2338;49.602;8.722;2022-08-23T12:08:50;30.20;20.70
4651;DHT22;2338;49.602;8.722;2022-08-23T12:12:09;30.20;20.00
4651;DHT22;2338;49.602;8.722;2022-08-23T12:14:56;30.40;20.60
4651;DHT22;2338;49.602;8.722;2022-08-23T12:18:13;30.60;18.90
4651;DHT22;2338;49.602;8.722;2022-08-23T12:21:00;30.80;18.30
4651;DHT22;2338;49.602;8.722;2022-08-23T12:23:49;30.90;19.10
4651;DHT22;2338;49.602;8.722;2022-08-23T12:26:44;31.00;19.50
4651;DHT22;2338;49.602;8.722;2022-08-23T12:29:39;31.10;19.60
4651;DHT22;2338;49.602;8.722;2022-08-23T12:32:33;31.00;19.00
4651;DHT22;2338;49.602;8.722;2022-08-23T12:35:37;30.90;18.10
4651;DHT22;2338;49.602;8.722;2022-08-23T12:38:33;30.70;18.60
4651;DHT22;2338;49.602;8.722;2022-08-23T12:41:22;30.70;18.50
4651;DHT22;2338;49.602;8.722;2022-08-23T12:44:08;30.80;19.30
4651;DHT22;2338;49.602;8.722;2022-08-23T12:46:55;31.00;18.60
4651;DHT22;2338;49.602;8.722;2022-08-23T12:49:41;31.20;18.00
4651;DHT22;2338;49.602;8.722;2022-08-23T12:52:39;31.40;17.10
4651;DHT22;2338;49.602;8.722;2022-08-23T12:55:30;31.50;17.70
4651;DHT22;2338;49.602;8.722;2022-08-23T12:58:25;31.70;17.10
4651;DHT22;2338;49.602;8.722;2022-08-23T13:01:18;31.80;16.20
4651;DHT22;2338;49.602;8.722;2022-08-23T13:04:07;32.00;16.90
4651;DHT22;2338;49.602;8.722;2022-08-23T13:06:56;32.00;16.70
4651;DHT22;2338;49.602;8.722;2022-08-23T13:09:44;31.70;17.00
4651;DHT22;2338;49.602;8.722;2022-08-23T13:12:30;31.30;18.10
4651;DHT22;2338;49.602;8.722;2022-08-23T13:15:41;30.90;19.10
4651;DHT22;2338;49.602;8.722;2022-08-23T13:18:31;30.40;18.40
4651;DHT22;2338;49.602;8.722;2022-08-23T13:21:29;30.10;18.70
4651;DHT22;2338;49.602;8.722;2022-08-23T13:24:33;29.90;19.80
4651;DHT22;2338;49.602;8.722;2022-08-23T13:27:22;29.70;20.20
4651;DHT22;2338;49.602;8.722;2022-08-23T13:30:20;29.60;20.00
4651;DHT22;2338;49.602;8.722;2022-08-23T13:33:17;29.40;20.50
4651;DHT22;2338;49.602;8.722;2022-08-23T13:36:08;29.20;21.70
4651;DHT22;2338;49.602;8.722;2022-08-23T13:39:03;29.30;22.40
4651;DHT22;2338;49.602;8.722;2022-08-23T13:41:49;29.70;20.50
4651;DHT22;2338;49.602;8.722;2022-08-23T13:44:36;30.10;19.60
4651;DHT22;2338;49.602;8.722;2022-08-23T13:47:24;30.60;19.50
4651;DHT22;2338;49.602;8.722;2022-08-23T13:50:15;31.10;18.80
4651;DHT22;2338;49.602;8.722;2022-08-23T13:53:01;31.40;17.20
4651;DHT22;2338;49.602;8.722;2022-08-23T13:55:49;31.40;17.10
4651;DHT22;2338;49.602;8.722;2022-08-23T13:58:35;31.40;16.50
4651;DHT22;2338;49.602;8.722;2022-08-23T14:01:23;31.10;17.70
4651;DHT22;2338;49.602;8.722;2022-08-23T14:04:09;30.90;17.60
4651;DHT22;2338;49.602;8.722;2022-08-23T14:06:55;30.80;17.40
4651;DHT22;2338;49.602;8.722;2022-08-23T14:09:41;31.10;17.40
4651;DHT22;2338;49.602;8.722;2022-08-23T14:12:28;31.50;16.10
4651;DHT22;2338;49.602;8.722;2022-08-23T14:15:15;32.00;15.80
4651;DHT22;2338;49.602;8.722;2022-08-23T14:18:02;32.30;15.30
4651;DHT22;2338;49.602;8.722;2022-08-23T14:20:48;32.50;14.60
4651;DHT22;2338;49.602;8.722;2022-08-23T14:23:34;32.40;14.90
4651;DHT22;2338;49.602;8.722;2022-08-23T14:26:19;32.40;14.50
4651;DHT22;2338;49.602;8.722;2022-08-23T14:29:06;32.30;14.60
4651;DHT22;2338;49.602;8.722;2022-08-23T14:31:52;32.20;14.30
4651;DHT22;2338;49.602;8.722;2022-08-23T14:34:39;31.90;15.50
4651;DHT22;2338;49.602;8.722;2022-08-23T14:37:25;31.60;15.90
4651;DHT22;2338;49.602;8.722;2022-08-23T14:40:11;31.40;16.20
4651;DHT22;2338;49.602;8.722;2022-08-23T14:42:57;31.50;15.80
4651;DHT22;2338;49.602;8.722;2022-08-23T14:45:43;31.60;15.30
4651;DHT22;2338;49.602;8.722;2022-08-23T14:48:29;31.80;15.70
4651;DHT22;2338;49.602;8.722;2022-08-23T14:51:24;32.10;15.70
4651;DHT22;2338;49.602;8.722;2022-08-23T14:54:12;32.30;15.10
4651;DHT22;2338;49.602;8.722;2022-08-23T14:56:58;32.60;15.50
4651;DHT22;2338;49.602;8.722;2022-08-23T14:59:44;32.60;14.20
4651;DHT22;2338;49.602;8.722;2022-08-23T15:02:30;32.60;13.70
4651;DHT22;2338;49.602;8.722;2022-08-23T15:05:16;32.50;14.00
4651;DHT22;2338;49.602;8.722;2022-08-23T15:08:03;32.50;14.40
4651;DHT22;2338;49.602;8.722;2022-08-23T15:10:49;32.40;14.40
4651;DHT22;2338;49.602;8.722;2022-08-23T15:13:38;32.50;14.40
4651;DHT22;2338;49.602;8.722;2022-08-23T15:16:24;32.50;13.80
4651;DHT22;2338;49.602;8.722;2022-08-23T15:19:09;32.50;13.20
4651;DHT22;2338;49.602;8.722;2022-08-23T15:21:55;32.40;13.40
4651;DHT22;2338;49.602;8.722;2022-08-23T15:24:42;32.20;13.10
4651;DHT22;2338;49.602;8.722;2022-08-23T15:27:29;32.10;14.40
4651;DHT22;2338;49.602;8.722;2022-08-23T15:30:16;32.10;14.00
4651;DHT22;2338;49.602;8.722;2022-08-23T15:33:01;32.10;13.90
4651;DHT22;2338;49.602;8.722;2022-08-23T15:35:49;32.20;15.00
4651;DHT22;2338;49.602;8.722;2022-08-23T15:38:36;32.30;14.70
4651;DHT22;2338;49.602;8.722;2022-08-23T15:41:23;32.10;13.70
4651;DHT22;2338;49.602;8.722;2022-08-23T15:44:08;32.00;14.80
4651;DHT22;2338;49.602;8.722;2022-08-23T15:46:54;32.00;13.90
4651;DHT22;2338;49.602;8.722;2022-08-23T15:49:39;32.00;13.50
4651;DHT22;2338;49.602;8.722;2022-08-23T15:52:26;31.90;15.00
4651;DHT22;2338;49.602;8.722;2022-08-23T15:55:12;32.00;14.70
4651;DHT22;2338;49.602;8.722;2022-08-23T15:57:59;32.10;14.20
4651;DHT22;2338;49.602;8.722;2022-08-23T16:00:46;32.10;15.80
4651;DHT22;2338;49.602;8.722;2022-08-23T16:03:32;32.20;15.00
4651;DHT22;2338;49.602;8.722;2022-08-23T16:06:17;32.30;15.70
4651;DHT22;2338;49.602;8.722;2022-08-23T16:09:05;32.30;14.50
4651;DHT22;2338;49.602;8.722;2022-08-23T16:11:52;32.30;13.70
4651;DHT22;2338;49.602;8.722;2022-08-23T16:14:39;32.30;14.40
4651;DHT22;2338;49.602;8.722;2022-08-23T16:17:24;32.10;13.50
4651;DHT22;2338;49.602;8.722;2022-08-23T16:20:11;32.00;14.10
4651;DHT22;2338;49.602;8.722;2022-08-23T16:22:57;31.90;14.70
4651;DHT22;2338;49.602;8.722;2022-08-23T16:25:43;31.60;15.00
4651;DHT22;2338;49.602;8.722;2022-08-23T16:28:28;31.50;14.80
4651;DHT22;2338;49.602;8.722;2022-08-23T16:31:16;31.40;14.30
4651;DHT22;2338;49.602;8.722;2022-08-23T16:34:02;31.30;14.60
4651;DHT22;2338;49.602;8.722;2022-08-23T16:36:50;31.20;14.90
4651;DHT22;2338;49.602;8.722;2022-08-23T16:39:38;31.20;15.40
4651;DHT22;2338;49.602;8.722;2022-08-23T16:42:24;31.20;16.60
4651;DHT22;2338;49.602;8.722;2022-08-23T16:45:10;31.10;16.10
4651;DHT22;2338;49.602;8.722;2022-08-23T16:47:57;31.00;15.20
4651;DHT22;2338;49.602;8.722;2022-08-23T16:50:44;31.00;15.30
4651;DHT22;2338;49.602;8.722;2022-08-23T16:53:30;30.90;15.50
4651;DHT22;2338;49.602;8.722;2022-08-23T16:56:16;30.80;14.90
4651;DHT22;2338;49.602;8.722;2022-08-23T16:59:05;30.80;15.90
4651;DHT22;2338;49.602;8.722;2022-08-23T17:01:53;30.70;16.90
4651;DHT22;2338;49.602;8.722;2022-08-23T17:04:40;30.60;18.70
4651;DHT22;2338;49.602;8.722;2022-08-23T17:07:26;30.40;19.70
4651;DHT22;2338;49.602;8.722;2022-08-23T17:10:13;30.30;20.70
4651;DHT22;2338;49.602;8.722;2022-08-23T17:12:59;30.20;21.10
4651;DHT22;2338;49.602;8.722;2022-08-23T17:15:45;30.10;22.20
4651;DHT22;2338;49.602;8.722;2022-08-23T17:18:31;29.90;22.10
4651;DHT22;2338;49.602;8.722;2022-08-23T17:21:18;29.60;21.90
4651;DHT22;2338;49.602;8.722;2022-08-23T17:24:04;29.40;24.00
4651;DHT22;2338;49.602;8.722;2022-08-23T17:26:50;29.00;24.60
4651;DHT22;2338;49.602;8.722;2022-08-23T17:29:35;28.70;26.20
4651;DHT22;2338;49.602;8.722;2022-08-23T17:32:21;28.40;26.40
4651;DHT22;2338;49.602;8.722;2022-08-23T17:35:08;28.20;27.70
4651;DHT22;2338;49.602;8.722;2022-08-23T17:37:55;28.10;26.70
4651;DHT22;2338;49.602;8.722;2022-08-23T17:40:40;27.70;27.70
4651;DHT22;2338;49.602;8.722;2022-08-23T17:43:26;27.40;26.90
4651;DHT22;2338;49.602;8.722;2022-08-23T17:46:12;27.30;27.80
4651;DHT22;2338;49.602;8.722;2022-08-23T17:48:58;27.10;27.70
4651;DHT22;2338;49.602;8.722;2022-08-23T17:51:44;27.00;29.10
4651;DHT22;2338;49.602;8.722;2022-08-23T17:54:31;26.90;29.10
4651;DHT22;2338;49.602;8.722;2022-08-23T17:57:17;26.70;29.00
4651;DHT22;2338;49.602;8.722;2022-08-23T18:00:04;26.50;29.90
4651;DHT22;2338;49.602;8.722;2022-08-23T18:02:50;26.50;30.30
4651;DHT22;2338;49.602;8.722;2022-08-23T18:05:37;26.30;30.90
4651;DHT22;2338;49.602;8.722;2022-08-23T18:08:24;26.20;31.60
4651;DHT22;2338;49.602;8.722;2022-08-23T18:11:11;26.00;31.30
4651;DHT22;2338;49.602;8.722;2022-08-23T18:13:57;25.90;31.30
4651;DHT22;2338;49.602;8.722;2022-08-23T18:16:43;25.80;30.30
4651;DHT22;2338;49.602;8.722;2022-08-23T18:19:29;25.60;30.20
4651;DHT22;2338;49.602;8.722;2022-08-23T18:22:15;25.50;30.90
4651;DHT22;2338;49.602;8.722;2022-08-23T18:25:00;25.40;31.90
4651;DHT22;2338;49.602;8.722;2022-08-23T18:27:47;25.30;32.80
4651;DHT22;2338;49.602;8.722;2022-08-23T18:30:53;25.10;33.60